Weather reports worldwide

Advertisment
La Seo D'Urgell, Spain (8115): temperature & dewpoint: 18.06.2018 16:00:00 - 24.06.2018 16:00:00 (CEST)La Seo D'Urgell, Spain (8115): wind speed & gusts: 18.06.2018 16:00:00 - 24.06.2018 16:00:00 (CEST)La Seo D'Urgell, Spain (8115): wind direction: 18.06.2018 16:00:00 - 24.06.2018 16:00:00 (CEST)La Seo D'Urgell, Spain (8115): precipitation: 18.06.2018 16:00:00 - 24.06.2018 16:00:00 (CEST)
Date & Time tt [°C] td [°C] ff [km/h] ff [kn] fx [km/h] fx [kn] dd rr [mm]
24.06.2018 16:00:00 28,0 13,1 7 4 18 10 WSW 0,0
24.06.2018 15:00:00 28,0 13,1 7 4 22 12 WSW 0,0
24.06.2018 14:00:00 26,5 11,8 4 2 14 8 W -
24.06.2018 13:00:00 26,5 12,9 4 2 11 6 SW 0,0
24.06.2018 12:00:00 25,5 13,4 4 2 8 5 SW 0,0
24.06.2018 11:00:00 24,1 14,5 1 0 6 3 NW 0,0
24.06.2018 10:00:00 20,6 14,5 1 1 5 3 S 0,0
24.06.2018 09:00:00 18,6 13,5 2 1 10 6 ENE 0,0
24.06.2018 08:00:00 17,8 13,3 3 1 8 5 E -
24.06.2018 07:00:00 17,4 13,1 3 1 8 4 E 0,0
24.06.2018 06:00:00 17,5 13,0 1 0 8 5 ENE 0,0
24.06.2018 05:00:00 17,5 12,8 5 3 9 5 NE 0,0
24.06.2018 04:00:00 17,8 12,7 4 2 10 5 ENE 0,0
24.06.2018 03:00:00 18,2 12,6 3 2 11 6 ENE 0,0
24.06.2018 02:00:00 18,7 12,5 1 0 11 6 NE -
24.06.2018 01:00:00 19,2 13,4 5 3 14 8 NE 0,0
24.06.2018 00:00:00 19,4 14,0 4 2 13 7 NE 0,0
23.06.2018 23:00:00 20,4 14,1 0 0 15 8 NNE 0,0
23.06.2018 22:00:00 21,4 13,3 2 1 18 10 NE 0,0
23.06.2018 21:00:00 22,9 12,2 6 3 23 13 ENE 0,0
23.06.2018 20:00:00 23,9 11,9 8 4 21 11 ENE -
23.06.2018 19:00:00 27,0 11,9 6 4 21 11 WSW 0,0
23.06.2018 18:00:00 27,6 12,8 7 4 27 14 W 0,0
23.06.2018 17:00:00 28,0 13,5 9 5 23 13 SW 0,0
23.06.2018 16:00:00 28,1 14,3 8 4 23 13 WSW 0,0
23.06.2018 15:00:00 27,4 14,1 9 5 27 15 W 0,0
23.06.2018 14:00:00 27,2 14,6 6 4 21 11 W -
23.06.2018 13:00:00 26,2 13,7 5 3 14 7 WSW 0,0
23.06.2018 12:00:00 25,5 13,4 4 2 11 6 SSW 0,0
23.06.2018 11:00:00 25,1 12,7 3 1 6 4 SW 0,0
23.06.2018 10:00:00 23,3 11,4 1 1 5 3 E 0,0
23.06.2018 09:00:00 20,9 12,9 0 0 3 2 ENE 0,0
23.06.2018 08:00:00 16,7 14,0 1 0 4 2 ENE -
23.06.2018 07:00:00 15,0 12,9 1 1 4 2 ENE 0,0
23.06.2018 06:00:00 15,8 12,9 1 1 4 2 WSW 0,0
23.06.2018 05:00:00 17,2 12,3 0 0 7 4 SSW 0,0
23.06.2018 04:00:00 19,0 11,3 2 1 12 7 E 0,0
23.06.2018 03:00:00 20,1 11,3 5 3 14 8 NE 0,0
23.06.2018 02:00:00 20,6 11,8 8 4 16 9 ENE -
23.06.2018 01:00:00 20,5 12,0 5 3 17 9 NE 0,0
23.06.2018 00:00:00 20,3 12,0 8 4 21 11 ENE 0,0
22.06.2018 23:00:00 23,0 10,4 9 5 22 12 E 0,0
22.06.2018 22:00:00 25,2 11,0 5 3 18 10 W 0,0
22.06.2018 21:00:00 26,3 10,5 8 4 18 10 WSW 0,0
22.06.2018 20:00:00 27,6 12,0 9 5 22 12 SW -
22.06.2018 19:00:00 28,8 11,8 7 4 26 14 SW 0,0
22.06.2018 18:00:00 29,0 11,1 8 4 18 10 SSW 0,0
22.06.2018 17:00:00 29,9 11,9 6 4 20 11 WSW 0,0
22.06.2018 16:00:00 30,2 13,0 9 5 21 11 WSW 0,0
22.06.2018 15:00:00 30,0 12,4 8 5 18 10 SW 0,0
22.06.2018 14:00:00 29,9 12,3 3 1 13 7 SW -
22.06.2018 13:00:00 29,5 13,3 2 1 9 5 SSE 0,0
22.06.2018 12:00:00 27,8 14,1 1 1 7 4 SSE 0,0
22.06.2018 11:00:00 25,6 14,4 1 0 5 3 NE 0,0
22.06.2018 10:00:00 22,3 14,7 0 0 7 4 NW 0,0
22.06.2018 09:00:00 21,9 14,5 1 1 5 3 ENE 0,0
22.06.2018 08:00:00 18,0 15,3 3 2 6 3 SW -
22.06.2018 07:00:00 16,0 14,2 2 1 4 2 NE 0,0
22.06.2018 06:00:00 16,7 14,3 0 0 5 3 SW 0,0
22.06.2018 05:00:00 17,2 14,8 1 1 4 2 WSW 0,0
22.06.2018 04:00:00 17,1 14,7 0 0 5 3 WSW 0,0
22.06.2018 03:00:00 18,0 14,9 1 1 6 3 WNW 0,0
22.06.2018 02:00:00 18,8 14,9 1 0 6 3 SE -
22.06.2018 01:00:00 19,7 15,1 1 0 5 3 ENE 0,0
22.06.2018 00:00:00 20,6 15,8 0 0 6 4 SSW 0,0
21.06.2018 23:00:00 21,3 15,6 2 1 10 5 N 0,0
21.06.2018 22:00:00 22,4 15,7 2 1 11 6 NE 0,0
21.06.2018 21:00:00 23,2 15,8 4 2 18 10 ENE 0,0
21.06.2018 20:00:00 24,4 15,1 11 6 21 11 ENE -
21.06.2018 19:00:00 24,7 13,9 10 5 26 14 E 0,0
21.06.2018 18:00:00 29,5 12,0 4 2 15 8 SW 0,0
21.06.2018 17:00:00 30,0 12,0 7 4 16 9 WSW 0,0
21.06.2018 16:00:00 30,8 12,2 8 5 19 11 SW 0,0
21.06.2018 15:00:00 29,2 11,3 9 5 22 12 WSW 0,0
21.06.2018 14:00:00 29,9 11,9 6 3 15 8 SW -
21.06.2018 13:00:00 28,7 12,6 7 4 13 7 SW 0,0
21.06.2018 12:00:00 26,9 13,3 3 2 9 5 WSW 0,0
21.06.2018 11:00:00 25,0 12,6 2 1 7 4 SSW 0,0
21.06.2018 10:00:00 23,0 13,2 1 0 4 2 S 0,0
21.06.2018 09:00:00 20,1 14,0 1 0 4 2 ESE 0,0
21.06.2018 08:00:00 15,5 14,2 0 0 4 2 SSW -
21.06.2018 07:00:00 13,7 12,4 1 1 4 2 NNW 0,0
21.06.2018 06:00:00 14,1 12,7 0 0 3 2 ESE 0,0
21.06.2018 05:00:00 14,7 13,1 1 1 3 1 NE 0,0
21.06.2018 04:00:00 15,1 13,3 0 0 4 2 N 0,0
21.06.2018 03:00:00 15,8 13,5 0 0 5 3 S 0,0
21.06.2018 02:00:00 16,7 14,0 1 1 3 2 NE -
21.06.2018 01:00:00 17,5 14,2 0 0 3 2 SSE 0,0
21.06.2018 00:00:00 18,8 14,3 0 0 5 3 S 0,0
20.06.2018 23:00:00 22,8 11,5 1 1 10 5 SW 0,0
20.06.2018 22:00:00 25,3 10,7 3 2 11 6 W 0,0
20.06.2018 21:00:00 26,4 10,1 6 3 15 8 W 0,0
20.06.2018 20:00:00 27,5 9,8 2 1 18 10 SW -
20.06.2018 19:00:00 28,9 9,1 6 4 19 11 WSW 0,0
20.06.2018 18:00:00 29,6 9,2 9 5 19 11 WSW 0,0
20.06.2018 17:00:00 30,4 8,8 7 4 20 11 WSW 0,0
20.06.2018 16:00:00 30,5 8,8 7 4 20 11 WSW 0,0
20.06.2018 15:00:00 29,9 8,9 7 4 18 10 WSW 0,0
20.06.2018 14:00:00 29,3 9,4 4 2 14 7 WSW -
20.06.2018 13:00:00 27,9 10,2 4 2 12 6 SW 0,0
20.06.2018 12:00:00 26,2 13,0 4 2 7 4 S 0,0
20.06.2018 11:00:00 24,5 12,5 2 1 8 4 SW 0,0
20.06.2018 10:00:00 22,3 12,6 4 2 8 5 SSW 0,0
20.06.2018 09:00:00 19,1 13,1 0 0 3 2 ENE 0,0
20.06.2018 08:00:00 14,9 13,8 1 1 4 2 ENE -
20.06.2018 07:00:00 13,0 11,9 0 0 4 2 SSE 0,0
20.06.2018 06:00:00 13,5 12,2 1 0 3 2 SSW 0,0
20.06.2018 05:00:00 14,0 12,6 1 1 4 2 NE 0,0
20.06.2018 04:00:00 14,6 12,8 0 0 4 2 NNE 0,0
20.06.2018 03:00:00 15,3 13,2 0 0 3 2 SSW 0,0
20.06.2018 02:00:00 16,2 13,5 0 0 4 2 ENE -
20.06.2018 01:00:00 17,5 13,8 0 0 3 2 ENE 0,0
20.06.2018 00:00:00 19,0 13,8 0 0 3 2 SSE 0,0
19.06.2018 23:00:00 21,4 13,3 1 1 4 2 NE 0,0
19.06.2018 22:00:00 23,5 11,5 0 0 10 6 SW 0,0
19.06.2018 21:00:00 25,3 11,1 4 2 18 10 NW 0,0
19.06.2018 20:00:00 26,4 11,3 6 3 19 11 W -
19.06.2018 19:00:00 27,1 11,6 7 4 21 11 WSW 0,0
19.06.2018 18:00:00 28,3 12,2 8 4 22 12 WSW 0,0
19.06.2018 17:00:00 28,7 11,7 7 4 17 9 W 0,0
19.06.2018 16:00:00 28,6 10,8 6 4 20 11 WSW 0,0
19.06.2018 15:00:00 28,1 10,3 7 4 18 10 WSW 0,0
19.06.2018 14:00:00 27,3 8,7 4 2 12 7 SW -
19.06.2018 13:00:00 25,4 8,8 5 3 13 7 SW 0,0
19.06.2018 12:00:00 24,1 9,3 3 2 10 6 SSW 0,0
19.06.2018 11:00:00 22,0 9,2 3 1 10 5 SSW 0,0
19.06.2018 10:00:00 19,4 9,0 4 2 11 6 SSW 0,0
19.06.2018 09:00:00 17,0 8,7 3 2 6 4 E 0,0
19.06.2018 08:00:00 12,4 10,1 1 1 6 3 ESE -
19.06.2018 07:00:00 10,2 8,5 1 0 4 2 S 0,0
19.06.2018 06:00:00 10,9 8,7 1 1 5 3 SSW 0,0
19.06.2018 05:00:00 11,7 8,6 1 1 6 3 SSW 0,0
19.06.2018 04:00:00 13,3 8,6 3 1 8 4 SSW 0,0
19.06.2018 03:00:00 14,6 7,9 4 2 15 8 SW 0,0
19.06.2018 02:00:00 16,4 8,4 5 3 14 8 NE -
19.06.2018 01:00:00 16,7 8,9 4 2 11 6 NE 0,0
19.06.2018 00:00:00 16,7 9,2 3 1 8 5 NE 0,0
18.06.2018 23:00:00 18,9 7,7 1 1 9 5 NNE 0,0
18.06.2018 22:00:00 21,1 6,6 0 0 8 4 SW 0,0
18.06.2018 21:00:00 23,9 5,8 1 1 17 9 NNW 0,0
18.06.2018 20:00:00 25,4 6,1 7 4 20 11 E -
18.06.2018 19:00:00 26,6 6,1 8 4 25 13 N 0,0
18.06.2018 18:00:00 28,1 6,2 8 4 21 12 N 0,0
18.06.2018 17:00:00 29,0 7,6 8 4 24 13 N 0,0
18.06.2018 16:00:00 28,9 8,6 8 4 24 13 NE 0,0

tt = temperature
td = dewpoint
ff = wind speed
fx = gusts
dd = wind direction
rr = precipitation

Next stations